Dublin, Georgia
Current Conditions -  °F | °C
As of 3:55 PM on Sunday 23 Nov 2014 (Local Time) from KDBN Reporting Station
Light Rain Light Rain  
Wind Chill: 64°   Ceiling: 300
Heat Index: 64°   Visibility: 3mi
Dew Point: 64°   Wind: 5mph
Humidity: 100%   Direction: 140°SE
Pressure: 29.81"   Gusts: NA
Location:  32.54°N, 82.91°W
Report Text: KDBN 232055Z AUTO 14004KT 3SM -RA OVC003 18/18 A2981 RMK AO2 LTG DSNT SW
Loading
Personal Weather Stations






























Interactive Weather Map New forecast layout! Learn more

10-Day Weather Forecast

Advertisements
Track Severe Weather on mobile